createdAt,value
2019-05-19T00:01:28.971Z,13.70
2019-05-19T00:03:59.854Z,13.60
2019-05-19T00:06:31.403Z,13.60
2019-05-19T00:09:02.686Z,13.50
2019-05-19T00:11:35.322Z,13.50
2019-05-19T00:14:07.026Z,13.40
2019-05-19T00:16:38.618Z,13.30
2019-05-19T00:19:09.563Z,13.20
2019-05-19T00:21:40.514Z,13.20
2019-05-19T00:24:12.022Z,13.20
2019-05-19T00:26:43.018Z,13.10
2019-05-19T00:29:14.107Z,13.10
2019-05-19T00:31:45.344Z,13.10
2019-05-19T00:34:16.627Z,13.00
2019-05-19T00:36:47.659Z,13.00
2019-05-19T00:39:18.887Z,13.00
2019-05-19T00:41:50.218Z,12.90
2019-05-19T00:44:21.587Z,12.90
2019-05-19T00:46:52.645Z,12.90
2019-05-19T00:49:23.652Z,12.90
2019-05-19T00:51:55.407Z,12.90
2019-05-19T00:54:27.235Z,12.90
2019-05-19T00:56:59.275Z,12.90
2019-05-19T00:59:30.546Z,12.90
2019-05-19T01:02:01.681Z,12.90
2019-05-19T01:04:32.639Z,12.80
2019-05-19T01:07:03.875Z,12.80
2019-05-19T01:09:34.951Z,12.80
2019-05-19T01:12:05.984Z,12.80
2019-05-19T01:14:36.991Z,12.80
2019-05-19T01:17:08.971Z,12.70
2019-05-19T01:19:40.503Z,12.70
2019-05-19T01:22:11.891Z,12.70
2019-05-19T01:24:43.259Z,12.70
2019-05-19T01:27:14.167Z,12.70
2019-05-19T01:29:45.527Z,12.70
2019-05-19T01:32:16.926Z,12.70
2019-05-19T01:34:47.946Z,12.60
2019-05-19T01:37:19.781Z,12.60
2019-05-19T01:39:50.911Z,12.60
2019-05-19T01:42:22.328Z,12.60
2019-05-19T01:44:53.415Z,12.60
2019-05-19T01:47:24.654Z,12.60
2019-05-19T01:50:16.176Z,12.60
2019-05-19T01:52:28.591Z,12.60
2019-05-19T01:54:59.619Z,12.60
2019-05-19T01:57:30.731Z,12.60
2019-05-19T02:00:01.964Z,12.60
2019-05-19T02:02:33.591Z,12.60
2019-05-19T02:05:04.670Z,12.60
2019-05-19T02:07:35.794Z,12.60
2019-05-19T02:10:07.079Z,12.50
2019-05-19T02:12:38.364Z,12.50
2019-05-19T02:15:09.871Z,12.50
2019-05-19T02:17:41.095Z,12.40
2019-05-19T02:20:12.763Z,12.40
2019-05-19T02:22:43.975Z,12.40
2019-05-19T02:25:15.546Z,12.40
2019-05-19T02:27:46.566Z,12.40
2019-05-19T02:30:18.087Z,12.30
2019-05-19T02:32:49.398Z,12.30
2019-05-19T02:35:20.656Z,12.30
2019-05-19T02:37:51.687Z,12.30
2019-05-19T02:40:23.177Z,12.20
2019-05-19T02:42:56.547Z,12.20
2019-05-19T02:45:29.603Z,12.20
2019-05-19T02:48:02.169Z,12.10
2019-05-19T02:50:50.908Z,12.00
2019-05-19T02:53:09.562Z,12.00
2019-05-19T02:55:41.107Z,11.90
2019-05-19T02:58:13.625Z,11.90
2019-05-19T03:00:44.654Z,11.80
2019-05-19T03:03:16.004Z,11.80
2019-05-19T03:05:46.727Z,11.80
2019-05-19T03:08:17.552Z,11.70
2019-05-19T03:10:48.475Z,11.70
2019-05-19T03:13:19.747Z,11.70
2019-05-19T03:15:50.779Z,11.70
2019-05-19T03:18:21.823Z,11.70
2019-05-19T03:21:09.741Z,11.70
2019-05-19T03:23:26.247Z,11.70
2019-05-19T03:25:57.167Z,11.70
2019-05-19T03:28:28.220Z,11.70
2019-05-19T03:31:17.132Z,11.70
2019-05-19T03:33:49.420Z,11.80
2019-05-19T03:36:20.586Z,11.80
2019-05-19T03:38:51.524Z,11.80
2019-05-19T03:41:22.595Z,11.90
2019-05-19T03:43:53.660Z,11.90
2019-05-19T03:46:24.736Z,12.00
2019-05-19T03:48:55.714Z,12.00
2019-05-19T03:51:31.367Z,12.10
2019-05-19T03:54:00.494Z,12.10
2019-05-19T03:56:31.682Z,12.20
2019-05-19T03:59:02.869Z,12.20
2019-05-19T04:01:34.544Z,12.30
2019-05-19T04:04:06.023Z,12.40
2019-05-19T04:06:37.449Z,12.50
2019-05-19T04:09:08.845Z,12.60
2019-05-19T04:11:39.991Z,12.70
2019-05-19T04:14:11.097Z,12.80
2019-05-19T04:16:42.115Z,13.00
2019-05-19T04:19:13.072Z,13.10
2019-05-19T04:21:48.637Z,13.20
2019-05-19T04:24:17.099Z,13.30
2019-05-19T04:26:48.251Z,13.40
2019-05-19T04:29:19.427Z,13.50
2019-05-19T04:31:51.119Z,13.60
2019-05-19T04:34:23.103Z,13.70
2019-05-19T04:36:55.435Z,13.90
2019-05-19T04:39:26.937Z,14.00
2019-05-19T04:41:58.102Z,14.20
2019-05-19T04:44:29.400Z,14.40
2019-05-19T04:47:00.661Z,14.70
2019-05-19T04:49:32.089Z,15.10
2019-05-19T04:52:07.029Z,15.40
2019-05-19T04:54:36.234Z,15.80
2019-05-19T04:57:07.368Z,16.20
2019-05-19T04:59:38.523Z,16.60
2019-05-19T05:02:09.616Z,17.00
2019-05-19T05:04:40.628Z,17.30
2019-05-19T05:07:11.567Z,17.50
2019-05-19T05:09:43.447Z,17.70
2019-05-19T05:12:14.665Z,17.90
2019-05-19T05:14:46.190Z,18.00
2019-05-19T05:20:07.403Z,18.30
2019-05-19T05:22:38.946Z,18.50
2019-05-19T05:25:10.327Z,18.60
2019-05-19T05:27:41.564Z,18.70
2019-05-19T05:30:14.711Z,19.00
2019-05-19T05:32:46.447Z,19.40
2019-05-19T05:35:17.574Z,19.70
2019-05-19T05:37:48.763Z,19.90
2019-05-19T05:40:21.730Z,20.00
2019-05-19T05:42:54.195Z,20.00
2019-05-19T05:45:25.618Z,19.90
2019-05-19T05:47:56.779Z,19.90
2019-05-19T05:50:28.017Z,19.90
2019-05-19T05:52:58.963Z,19.80
2019-05-19T05:55:30.039Z,19.60
2019-05-19T05:58:01.286Z,19.60
2019-05-19T06:00:32.376Z,19.60
2019-05-19T06:03:03.619Z,19.70
2019-05-19T06:05:34.631Z,19.80
2019-05-19T06:08:05.719Z,19.90
2019-05-19T06:10:36.771Z,20.10
2019-05-19T06:13:08.466Z,20.30
2019-05-19T06:15:39.527Z,20.40
2019-05-19T06:18:10.654Z,20.40
2019-05-19T06:20:41.871Z,20.40
2019-05-19T06:23:12.923Z,20.50
2019-05-19T06:25:44.075Z,20.40
2019-05-19T06:28:15.158Z,20.30
2019-05-19T06:30:46.371Z,20.20
2019-05-19T06:33:17.479Z,20.10
2019-05-19T06:35:48.464Z,19.80
2019-05-19T06:38:20.523Z,19.60
2019-05-19T06:40:51.568Z,19.50
2019-05-19T06:43:22.709Z,19.40
2019-05-19T06:45:54.246Z,19.30
2019-05-19T06:48:25.274Z,19.20
2019-05-19T06:50:56.613Z,19.00
2019-05-19T06:53:28.161Z,18.90
2019-05-19T06:56:00.055Z,18.90
2019-05-19T06:58:31.355Z,19.00
2019-05-19T07:01:02.646Z,18.90
2019-05-19T07:03:33.878Z,18.90
2019-05-19T07:06:05.211Z,18.90
2019-05-19T07:08:36.404Z,19.00
2019-05-19T07:11:08.699Z,19.10
2019-05-19T07:13:40.239Z,19.20
2019-05-19T07:16:11.288Z,19.30
2019-05-19T07:18:42.487Z,19.50
2019-05-19T07:21:13.951Z,19.60
2019-05-19T07:23:45.399Z,19.80
2019-05-19T07:26:19.943Z,20.00
2019-05-19T07:28:51.071Z,20.10
2019-05-19T07:31:23.057Z,20.30
2019-05-19T07:33:54.088Z,20.40
2019-05-19T07:36:25.826Z,20.50
2019-05-19T07:38:56.974Z,20.80
2019-05-19T07:41:28.638Z,21.10
2019-05-19T07:43:59.887Z,21.40
2019-05-19T07:46:30.905Z,21.90
2019-05-19T07:49:02.454Z,22.40
2019-05-19T07:51:33.653Z,22.90
2019-05-19T07:54:04.990Z,23.50
2019-05-19T07:56:35.741Z,24.00
2019-05-19T07:59:08.025Z,24.40
2019-05-19T08:01:39.274Z,24.80
2019-05-19T08:04:10.167Z,25.10
2019-05-19T08:06:41.395Z,25.60
2019-05-19T08:09:12.583Z,26.20
2019-05-19T08:11:43.742Z,26.40
2019-05-19T08:14:14.807Z,26.30
2019-05-19T08:16:45.860Z,26.30
2019-05-19T08:19:17.499Z,26.00
2019-05-19T08:21:48.954Z,25.60
2019-05-19T08:24:23.075Z,25.50
2019-05-19T08:26:53.972Z,25.20
2019-05-19T08:29:25.427Z,24.60
2019-05-19T08:31:56.421Z,24.20
2019-05-19T08:34:27.488Z,23.80
2019-05-19T08:37:01.067Z,23.40
2019-05-19T08:39:32.332Z,23.00
2019-05-19T08:42:04.702Z,22.80
2019-05-19T08:44:35.767Z,22.70
2019-05-19T08:47:06.963Z,22.50
2019-05-19T08:49:38.127Z,22.50
2019-05-19T08:52:09.487Z,22.60
2019-05-19T08:54:40.499Z,22.80
2019-05-19T08:57:11.691Z,22.90
2019-05-19T08:59:42.607Z,23.10
2019-05-19T09:02:13.943Z,23.30
2019-05-19T09:04:45.159Z,23.40
2019-05-19T09:07:16.204Z,23.40
2019-05-19T09:09:47.265Z,23.70
2019-05-19T09:12:23.256Z,23.60
2019-05-19T09:14:55.199Z,23.70
2019-05-19T09:17:26.202Z,23.50
2019-05-19T09:19:57.104Z,23.40
2019-05-19T09:22:28.367Z,23.20
2019-05-19T09:24:59.744Z,22.90
2019-05-19T09:27:30.804Z,22.80
2019-05-19T09:30:02.760Z,22.50
2019-05-19T09:32:45.959Z,22.20
2019-05-19T09:35:17.122Z,22.00
2019-05-19T09:37:48.175Z,21.70
2019-05-19T09:40:19.905Z,21.50
2019-05-19T09:42:50.976Z,21.20
2019-05-19T09:45:22.427Z,20.90
2019-05-19T09:47:53.550Z,20.60
2019-05-19T09:50:24.840Z,20.30
2019-05-19T09:52:55.907Z,20.00
2019-05-19T09:55:27.466Z,19.90
2019-05-19T09:57:58.752Z,19.70
2019-05-19T10:00:30.307Z,19.70
2019-05-19T10:03:01.491Z,19.70
2019-05-19T10:05:32.530Z,19.70
2019-05-19T10:08:04.199Z,19.70
2019-05-19T10:11:05.673Z,19.80
2019-05-19T10:13:37.882Z,19.90
2019-05-19T10:16:09.023Z,20.00
2019-05-19T10:18:40.512Z,20.20
2019-05-19T10:21:11.651Z,20.20
2019-05-19T10:23:42.814Z,20.40
2019-05-19T10:26:14.482Z,20.50
2019-05-19T10:28:45.523Z,20.60
2019-05-19T10:31:16.779Z,20.80
2019-05-19T10:33:48.356Z,21.00
2019-05-19T10:36:19.360Z,21.20
2019-05-19T10:38:50.383Z,21.50
2019-05-19T10:41:21.587Z,21.80
2019-05-19T10:44:00.846Z,22.10
2019-05-19T10:46:32.335Z,22.40
2019-05-19T10:49:03.591Z,22.80
2019-05-19T10:51:34.872Z,23.40
2019-05-19T10:54:06.083Z,24.10
2019-05-19T10:56:37.715Z,24.70
2019-05-19T10:59:08.903Z,25.30
2019-05-19T11:01:40.133Z,25.80
2019-05-19T11:04:11.184Z,26.00
2019-05-19T11:06:42.647Z,26.40
2019-05-19T11:09:13.640Z,26.90
2019-05-19T11:11:44.787Z,27.20
2019-05-19T11:14:16.048Z,27.20
2019-05-19T11:16:47.503Z,27.40
2019-05-19T11:19:18.739Z,27.20
2019-05-19T11:21:50.131Z,27.60
2019-05-19T11:24:21.825Z,28.00
2019-05-19T11:26:53.762Z,28.30
2019-05-19T11:29:25.502Z,28.50
2019-05-19T11:31:56.980Z,28.50
2019-05-19T11:34:28.659Z,28.40
2019-05-19T11:37:00.015Z,28.60
2019-05-19T11:39:32.391Z,28.60
2019-05-19T11:42:03.603Z,28.50
2019-05-19T11:44:36.559Z,28.60
2019-05-19T11:47:07.935Z,28.40
2019-05-19T11:49:39.507Z,28.20
2019-05-19T11:52:11.136Z,27.50
2019-05-19T11:54:42.264Z,27.00
2019-05-19T11:57:13.571Z,26.00
2019-05-19T11:59:44.678Z,25.40
2019-05-19T12:02:16.216Z,25.10
2019-05-19T12:04:47.423Z,24.70
2019-05-19T12:07:18.615Z,24.30
2019-05-19T12:09:50.143Z,24.00
2019-05-19T12:12:21.268Z,23.80
2019-05-19T12:14:52.436Z,23.90
2019-05-19T12:17:24.163Z,24.40
2019-05-19T12:19:55.971Z,25.10
2019-05-19T12:22:27.312Z,25.80
2019-05-19T12:24:58.203Z,26.60
2019-05-19T12:27:29.547Z,27.40
2019-05-19T12:30:00.708Z,28.20
2019-05-19T12:32:32.591Z,28.90
2019-05-19T12:35:04.755Z,29.70
2019-05-19T12:37:35.991Z,30.60
2019-05-19T12:40:07.899Z,31.30
2019-05-19T12:42:39.266Z,32.10
2019-05-19T12:45:11.440Z,32.60
2019-05-19T12:47:42.692Z,32.70
2019-05-19T12:50:14.971Z,32.80
2019-05-19T12:52:46.623Z,32.70
2019-05-19T12:55:17.830Z,32.40
2019-05-19T12:57:49.027Z,32.00
2019-05-19T13:00:21.184Z,31.50
2019-05-19T13:02:52.279Z,31.30
2019-05-19T13:05:23.887Z,31.30
2019-05-19T13:07:55.143Z,31.40
2019-05-19T13:10:26.804Z,31.70
2019-05-19T13:12:58.597Z,32.00
2019-05-19T13:15:29.928Z,32.10
2019-05-19T13:18:01.003Z,32.00
2019-05-19T13:20:32.323Z,31.80
2019-05-19T13:23:03.431Z,31.80
2019-05-19T13:25:34.827Z,31.80
2019-05-19T13:28:05.739Z,31.00
2019-05-19T13:30:36.585Z,30.70
2019-05-19T13:33:07.378Z,30.40
2019-05-19T13:35:39.151Z,30.50
2019-05-19T13:38:10.351Z,30.30
2019-05-19T13:40:41.499Z,30.30
2019-05-19T13:43:12.447Z,29.80
2019-05-19T13:45:44.028Z,29.40
2019-05-19T13:48:14.831Z,29.40
2019-05-19T13:50:45.707Z,29.20
2019-05-19T13:53:16.751Z,29.00
2019-05-19T13:55:48.375Z,28.50
2019-05-19T13:58:19.171Z,28.20
2019-05-19T14:00:50.749Z,28.00
2019-05-19T14:03:21.775Z,27.50
2019-05-19T14:05:52.743Z,27.10
2019-05-19T14:08:23.619Z,26.90
2019-05-19T14:10:54.919Z,26.50
2019-05-19T14:13:26.107Z,26.20
2019-05-19T14:15:57.347Z,25.80
2019-05-19T14:18:28.894Z,25.70
2019-05-19T14:21:00.083Z,25.50
2019-05-19T14:23:31.507Z,25.40
2019-05-19T14:26:02.935Z,25.20
2019-05-19T14:28:34.103Z,25.30
2019-05-19T14:31:05.355Z,25.30
2019-05-19T14:33:36.415Z,25.30
2019-05-19T14:36:07.235Z,25.10
2019-05-19T14:38:40.123Z,24.90
2019-05-19T14:41:12.355Z,24.80
2019-05-19T14:43:43.455Z,24.80
2019-05-19T14:46:14.895Z,24.70
2019-05-19T14:48:46.087Z,24.60
2019-05-19T14:51:17.087Z,24.60
2019-05-19T14:53:48.790Z,24.60
2019-05-19T14:56:20.165Z,24.50
2019-05-19T14:58:51.126Z,24.50
2019-05-19T15:01:22.527Z,24.60
2019-05-19T15:03:53.833Z,24.70
2019-05-19T15:06:24.891Z,24.90
2019-05-19T15:08:55.974Z,24.90
2019-05-19T15:11:27.015Z,25.00
2019-05-19T15:13:58.589Z,24.90
2019-05-19T15:16:29.353Z,24.90
2019-05-19T15:19:00.963Z,24.90
2019-05-19T15:21:32.551Z,25.00
2019-05-19T15:24:04.411Z,25.10
2019-05-19T15:26:35.418Z,25.00
2019-05-19T15:29:06.503Z,25.00
2019-05-19T15:31:37.403Z,25.00
2019-05-19T15:34:08.139Z,24.90
2019-05-19T15:36:39.331Z,24.80
2019-05-19T15:39:14.435Z,24.70
2019-05-19T15:41:44.121Z,24.70
2019-05-19T15:44:16.839Z,24.50
2019-05-19T15:46:47.759Z,24.40
2019-05-19T15:49:19.015Z,24.40
2019-05-19T15:52:01.864Z,24.40
2019-05-19T15:54:23.299Z,24.40
2019-05-19T15:56:54.571Z,24.30
2019-05-19T15:59:25.679Z,24.30
2019-05-19T16:01:56.819Z,24.20
2019-05-19T16:04:27.812Z,24.20
2019-05-19T16:06:59.319Z,24.20
2019-05-19T16:09:30.903Z,24.00
2019-05-19T16:12:02.265Z,23.90
2019-05-19T16:14:34.498Z,23.80
2019-05-19T16:17:05.734Z,23.80
2019-05-19T16:19:36.710Z,23.70
2019-05-19T16:22:08.615Z,23.60
2019-05-19T16:24:39.568Z,23.60
2019-05-19T16:27:12.790Z,23.60
2019-05-19T16:29:43.470Z,23.40
2019-05-19T16:32:14.545Z,23.40
2019-05-19T16:34:45.683Z,23.30
2019-05-19T16:37:16.862Z,23.10
2019-05-19T16:39:48.463Z,23.00
2019-05-19T16:42:20.210Z,22.90
2019-05-19T16:44:51.443Z,22.90
2019-05-19T16:47:22.862Z,22.80
2019-05-19T16:49:54.039Z,22.80
2019-05-19T16:52:25.206Z,22.80
2019-05-19T16:55:13.422Z,22.70
2019-05-19T16:57:44.416Z,22.60
2019-05-19T17:00:15.724Z,22.50
2019-05-19T17:02:47.285Z,22.50
2019-05-19T17:05:18.647Z,22.40
2019-05-19T17:07:50.314Z,22.40
2019-05-19T17:10:22.071Z,22.30
2019-05-19T17:12:53.563Z,22.20
2019-05-19T17:15:29.200Z,22.20
2019-05-19T17:18:01.651Z,22.20
2019-05-19T17:20:33.079Z,22.20
2019-05-19T17:23:04.338Z,22.10
2019-05-19T17:25:35.546Z,22.10
2019-05-19T17:28:06.651Z,22.00
2019-05-19T17:30:37.704Z,22.00
2019-05-19T17:33:09.010Z,21.90
2019-05-19T17:35:41.240Z,21.80
2019-05-19T17:38:12.720Z,21.70
2019-05-19T17:40:43.764Z,21.70
2019-05-19T17:43:14.807Z,21.70
2019-05-19T17:45:45.934Z,21.60
2019-05-19T17:48:26.065Z,21.60
2019-05-19T17:50:50.302Z,21.60
2019-05-19T17:53:22.114Z,21.50
2019-05-19T17:55:54.863Z,21.50
2019-05-19T17:58:27.179Z,21.40
2019-05-19T18:00:58.512Z,21.40
2019-05-19T18:03:30.705Z,21.40
2019-05-19T18:06:01.989Z,21.30
2019-05-19T18:08:34.096Z,21.30
2019-05-19T18:11:05.172Z,21.20
2019-05-19T18:13:36.491Z,21.10
2019-05-19T18:16:08.183Z,21.10
2019-05-19T18:18:39.246Z,21.00
2019-05-19T18:21:10.451Z,20.90
2019-05-19T18:23:41.415Z,20.80
2019-05-19T18:26:12.215Z,20.70
2019-05-19T18:28:44.511Z,20.60
2019-05-19T18:31:16.595Z,20.60
2019-05-19T18:33:47.727Z,20.50
2019-05-19T18:36:19.164Z,20.40
2019-05-19T18:38:50.843Z,20.30
2019-05-19T18:41:22.691Z,20.20
2019-05-19T18:43:55.075Z,20.20
2019-05-19T18:46:26.815Z,20.10
2019-05-19T18:48:58.435Z,20.00
2019-05-19T18:51:29.428Z,19.90
2019-05-19T18:54:00.495Z,19.80
2019-05-19T18:56:33.151Z,19.70
2019-05-19T18:59:04.604Z,19.60
2019-05-19T19:01:35.990Z,19.50
2019-05-19T19:04:07.488Z,19.40
2019-05-19T19:06:38.699Z,19.30
2019-05-19T19:09:10.372Z,19.20
2019-05-19T19:11:41.573Z,19.20
2019-05-19T19:14:13.871Z,19.20
2019-05-19T19:16:44.975Z,19.10
2019-05-19T19:19:16.434Z,19.10
2019-05-19T19:21:49.748Z,19.00
2019-05-19T19:24:21.879Z,18.90
2019-05-19T19:26:53.292Z,18.80
2019-05-19T19:29:24.404Z,18.70
2019-05-19T19:31:55.573Z,18.60
2019-05-19T19:34:27.077Z,18.60
2019-05-19T19:36:58.535Z,18.50
2019-05-19T19:39:29.980Z,18.40
2019-05-19T19:42:01.012Z,18.40
2019-05-19T19:44:32.510Z,18.40
2019-05-19T19:47:03.944Z,18.30
2019-05-19T19:49:35.144Z,18.30
2019-05-19T19:52:06.600Z,18.20
2019-05-19T19:54:37.759Z,18.20
2019-05-19T19:57:08.895Z,18.10
2019-05-19T19:59:40.441Z,18.10
2019-05-19T20:02:11.637Z,18.00
2019-05-19T20:04:42.739Z,17.90
2019-05-19T20:07:13.780Z,17.90
2019-05-19T20:09:45.239Z,17.80
2019-05-19T20:12:16.332Z,17.80
2019-05-19T20:14:48.487Z,17.80
2019-05-19T20:17:19.776Z,17.80
2019-05-19T20:19:51.051Z,17.70
2019-05-19T20:22:21.931Z,17.70
2019-05-19T20:24:54.035Z,17.70
2019-05-19T20:27:25.191Z,17.70
2019-05-19T20:29:57.435Z,17.70
2019-05-19T20:32:29.695Z,17.70
2019-05-19T20:35:00.647Z,17.70
2019-05-19T20:37:31.735Z,17.70
2019-05-19T20:40:03.139Z,17.80
2019-05-19T20:42:34.568Z,17.80
2019-05-19T20:45:06.287Z,17.80
2019-05-19T20:47:37.963Z,17.80
2019-05-19T20:50:09.387Z,17.80
2019-05-19T20:52:40.583Z,17.80
2019-05-19T20:55:12.247Z,17.80
2019-05-19T20:57:43.425Z,17.80
2019-05-19T21:00:14.839Z,17.80
2019-05-19T21:02:45.985Z,17.80
2019-05-19T21:05:17.367Z,17.80
2019-05-19T21:07:48.631Z,17.80
2019-05-19T21:10:20.051Z,17.80
2019-05-19T21:12:51.310Z,17.70
2019-05-19T21:15:22.327Z,17.70
2019-05-19T21:17:53.163Z,17.70
2019-05-19T21:20:24.248Z,17.60
2019-05-19T21:22:55.312Z,17.60
2019-05-19T21:25:26.426Z,17.60
2019-05-19T21:27:57.855Z,17.50
2019-05-19T21:30:29.015Z,17.50
2019-05-19T21:33:00.001Z,17.50
2019-05-19T21:35:31.271Z,17.50
2019-05-19T21:38:02.226Z,17.40
2019-05-19T21:40:34.219Z,17.40
2019-05-19T21:43:05.547Z,17.40
2019-05-19T21:45:37.079Z,17.40
2019-05-19T21:48:08.103Z,17.40
2019-05-19T21:50:39.338Z,17.40
2019-05-19T21:53:10.431Z,17.30
2019-05-19T21:55:41.147Z,17.30
2019-05-19T21:58:11.891Z,17.30
2019-05-19T22:00:44.510Z,17.30
2019-05-19T22:03:16.029Z,17.20
2019-05-19T22:05:53.510Z,17.20
2019-05-19T22:08:21.621Z,17.20
2019-05-19T22:10:52.822Z,17.20
2019-05-19T22:13:24.079Z,17.20
2019-05-19T22:16:11.254Z,17.10
2019-05-19T22:18:27.946Z,17.10
2019-05-19T22:20:58.801Z,17.10
2019-05-19T22:23:29.855Z,17.10
2019-05-19T22:26:00.946Z,17.00
2019-05-19T22:28:31.966Z,17.00
2019-05-19T22:31:03.054Z,17.00
2019-05-19T22:33:34.275Z,17.00
2019-05-19T22:36:05.980Z,17.00
2019-05-19T22:38:36.963Z,17.00
2019-05-19T22:41:07.862Z,17.00
2019-05-19T22:43:38.947Z,17.00
2019-05-19T22:46:10.326Z,17.00
2019-05-19T22:48:41.703Z,17.00
2019-05-19T22:51:13.058Z,17.00
2019-05-19T22:53:44.163Z,16.90
2019-05-19T22:56:16.811Z,16.90
2019-05-19T22:58:48.059Z,16.90
2019-05-19T23:01:19.063Z,16.90
2019-05-19T23:03:50.227Z,16.80
2019-05-19T23:06:21.167Z,16.80
2019-05-19T23:08:52.022Z,16.70
2019-05-19T23:11:23.541Z,16.70
2019-05-19T23:13:55.056Z,16.60
2019-05-19T23:16:26.384Z,16.50
2019-05-19T23:18:57.650Z,16.40
2019-05-19T23:21:28.763Z,16.40
2019-05-19T23:23:59.942Z,16.30
2019-05-19T23:26:31.131Z,16.20
2019-05-19T23:29:02.265Z,16.10
2019-05-19T23:31:33.199Z,16.10
2019-05-19T23:34:05.187Z,16.00
2019-05-19T23:36:36.156Z,15.90
2019-05-19T23:39:08.114Z,15.80
2019-05-19T23:41:38.951Z,15.70
2019-05-19T23:44:10.380Z,15.60
2019-05-19T23:46:41.885Z,15.50
2019-05-19T23:49:12.827Z,15.40
2019-05-19T23:51:43.683Z,15.40
2019-05-19T23:54:14.763Z,15.30
2019-05-19T23:56:45.951Z,15.20
2019-05-19T23:59:16.990Z,15.10
